Main page
METAR-TAF:

METAR-TAF

Airports :

RAF Shawbury

Shawbury, England

latitude: 52-48N, longitude: 002-40W, elevation: 76 m

Current weather observation

The report was made 32 minutes ago, at 05:50 UTC
Wind 5 kt from the West
Temperature 9°C
Humidity 87%
Pressure 1032 hPa
Visibility 10 km or more
no clouds below 1500 m and no cumulonimbus

METAR: EGOS 230550Z 26005KT CAVOK 09/07 Q1032 BLU

Time: 07:22 (06:22 UTC)

Forecast

The report was made 32 minutes ago, at 05:50 UTC
Forecast valid from 23 at 06 UTC to 23 at 15 UTC
Wind 6 kt from the West
Visibility 10 km or more
Few clouds at a height of 3000 ft
Becoming
from 23 at 08 UTC to 23 at 11 UTC
Wind 12 kt from the West/Northwest with gusts up to 22 kt
Temporary
from 23 at 09 UTC to 23 at 13 UTC
Scattered clouds at a height of 1800 ft
Becoming
from 23 at 13 UTC to 23 at 15 UTC
Wind 8 kt from the West/Northwest

TAF: EGOS 230550Z 2306/2315 27006KT 9999 FEW030 BECMG 2308/2311 30012G22KT TEMPO 2309/2313 SCT018 BECMG 2313/2315 29008KT

Weather observations and forecasts of more than 4000 airports (METAR and TAF reports).

The available stations are represented by yellow and red dots on the map.

Hover mouse over dot to see the name of the station.

Then click to see weather observations and forecasts.

To change the map : click on the green buttons with a black cross to zoom in, on the green button with a dash to zoom out, or on the green arrows for adjacent maps.


METAR-TAF: